sensor_id;sensor_type;location;lat;lon;timestamp;P1;durP1;ratioP1;P2;durP2;ratioP2
5827;SDS011;42583;50.240;8.444;2023-03-12T00:06:50;3.87;;;1.60;;
5827;SDS011;42583;50.240;8.444;2023-03-12T00:21:51;3.30;;;1.63;;
5827;SDS011;42583;50.240;8.444;2023-03-12T00:36:51;3.23;;;1.60;;
5827;SDS011;42583;50.240;8.444;2023-03-12T00:51:53;3.83;;;1.50;;
5827;SDS011;42583;50.240;8.444;2023-03-12T01:06:54;4.20;;;1.50;;
5827;SDS011;42583;50.240;8.444;2023-03-12T01:21:54;7.23;;;1.70;;
5827;SDS011;42583;50.240;8.444;2023-03-12T01:36:55;5.70;;;1.57;;
5827;SDS011;42583;50.240;8.444;2023-03-12T02:07:07;2.27;;;1.47;;
5827;SDS011;42583;50.240;8.444;2023-03-12T02:22:10;6.67;;;2.00;;
5827;SDS011;42583;50.240;8.444;2023-03-12T02:37:12;5.37;;;1.80;;
5827;SDS011;42583;50.240;8.444;2023-03-12T02:52:13;11.10;;;3.70;;
5827;SDS011;42583;50.240;8.444;2023-03-12T03:07:14;7.67;;;2.63;;
5827;SDS011;42583;50.240;8.444;2023-03-12T03:22:14;5.67;;;1.80;;
5827;SDS011;42583;50.240;8.444;2023-03-12T03:37:15;5.00;;;1.90;;
5827;SDS011;42583;50.240;8.444;2023-03-12T03:52:15;4.17;;;1.90;;
5827;SDS011;42583;50.240;8.444;2023-03-12T04:07:17;3.53;;;1.70;;
5827;SDS011;42583;50.240;8.444;2023-03-12T04:22:18;7.53;;;1.70;;
5827;SDS011;42583;50.240;8.444;2023-03-12T04:37:18;4.93;;;2.20;;
5827;SDS011;42583;50.240;8.444;2023-03-12T04:52:19;11.63;;;2.97;;
5827;SDS011;42583;50.240;8.444;2023-03-12T05:07:19;3.13;;;1.90;;
5827;SDS011;42583;50.240;8.444;2023-03-12T05:22:20;3.97;;;1.70;;
5827;SDS011;42583;50.240;8.444;2023-03-12T05:37:20;4.07;;;1.50;;
5827;SDS011;42583;50.240;8.444;2023-03-12T05:52:21;3.70;;;1.80;;
5827;SDS011;42583;50.240;8.444;2023-03-12T06:07:21;6.60;;;2.10;;
5827;SDS011;42583;50.240;8.444;2023-03-12T06:22:22;12.40;;;2.40;;
5827;SDS011;42583;50.240;8.444;2023-03-12T06:37:24;9.53;;;2.70;;
5827;SDS011;42583;50.240;8.444;2023-03-12T06:52:24;6.17;;;3.23;;
5827;SDS011;42583;50.240;8.444;2023-03-12T07:07:25;12.13;;;3.77;;
5827;SDS011;42583;50.240;8.444;2023-03-12T07:22:26;10.87;;;3.20;;
5827;SDS011;42583;50.240;8.444;2023-03-12T07:37:27;7.67;;;4.07;;
5827;SDS011;42583;50.240;8.444;2023-03-12T07:52:27;5.70;;;3.93;;
5827;SDS011;42583;50.240;8.444;2023-03-12T08:07:29;2.67;;;2.20;;
5827;SDS011;42583;50.240;8.444;2023-03-12T08:22:31;2.70;;;2.00;;
5827;SDS011;42583;50.240;8.444;2023-03-12T08:37:31;5.37;;;1.80;;
5827;SDS011;42583;50.240;8.444;2023-03-12T08:52:32;5.72;;;2.00;;
5827;SDS011;42583;50.240;8.444;2023-03-12T09:07:32;41.45;;;3.17;;
5827;SDS011;42583;50.240;8.444;2023-03-12T09:22:34;71.00;;;4.07;;
5827;SDS011;42583;50.240;8.444;2023-03-12T09:37:35;189.77;;;5.20;;
5827;SDS011;42583;50.240;8.444;2023-03-12T09:52:41;161.57;;;4.57;;
5827;SDS011;42583;50.240;8.444;2023-03-12T10:07:49;251.98;;;7.25;;
5827;SDS011;42583;50.240;8.444;2023-03-12T10:23:05;435.65;;;11.23;;
5827;SDS011;42583;50.240;8.444;2023-03-12T10:38:16;394.95;;;9.52;;
5827;SDS011;42583;50.240;8.444;2023-03-12T10:53:22;577.33;;;13.77;;
5827;SDS011;42583;50.240;8.444;2023-03-12T11:08:31;558.22;;;12.63;;
5827;SDS011;42583;50.240;8.444;2023-03-12T11:23:35;616.47;;;14.75;;
5827;SDS011;42583;50.240;8.444;2023-03-12T11:39:22;660.63;;;16.00;;
5827;SDS011;42583;50.240;8.444;2023-03-12T11:54:17;781.55;;;20.20;;
5827;SDS011;42583;50.240;8.444;2023-03-12T12:40:45;24.20;;;7.80;;
5827;SDS011;42583;50.240;8.444;2023-03-12T12:55:51;18.80;;;6.67;;
5827;SDS011;42583;50.240;8.444;2023-03-12T13:11:44;13.88;;;6.10;;
5827;SDS011;42583;50.240;8.444;2023-03-12T13:26:31;15.88;;;6.40;;
5827;SDS011;42583;50.240;8.444;2023-03-12T13:56:46;21.92;;;6.43;;
5827;SDS011;42583;50.240;8.444;2023-03-12T14:27:20;6.90;;;4.00;;
5827;SDS011;42583;50.240;8.444;2023-03-12T14:42:27;10.10;;;4.50;;
5827;SDS011;42583;50.240;8.444;2023-03-12T14:57:30;12.33;;;3.50;;
5827;SDS011;42583;50.240;8.444;2023-03-12T15:12:32;11.07;;;3.55;;
5827;SDS011;42583;50.240;8.444;2023-03-12T15:27:36;15.17;;;3.13;;
5827;SDS011;42583;50.240;8.444;2023-03-12T15:42:37;13.85;;;2.97;;
5827;SDS011;42583;50.240;8.444;2023-03-12T15:57:47;15.93;;;2.90;;
5827;SDS011;42583;50.240;8.444;2023-03-12T16:12:48;15.45;;;2.47;;
5827;SDS011;42583;50.240;8.444;2023-03-12T16:27:50;16.13;;;2.58;;
5827;SDS011;42583;50.240;8.444;2023-03-12T16:42:57;18.25;;;3.13;;
5827;SDS011;42583;50.240;8.444;2023-03-12T16:58:01;16.20;;;3.63;;
5827;SDS011;42583;50.240;8.444;2023-03-12T17:13:02;19.95;;;2.90;;
5827;SDS011;42583;50.240;8.444;2023-03-12T17:28:02;18.40;;;2.90;;
5827;SDS011;42583;50.240;8.444;2023-03-12T17:43:06;23.48;;;4.20;;
5827;SDS011;42583;50.240;8.444;2023-03-12T17:58:07;19.20;;;3.17;;
5827;SDS011;42583;50.240;8.444;2023-03-12T18:13:08;22.50;;;5.05;;
5827;SDS011;42583;50.240;8.444;2023-03-12T18:28:10;26.52;;;5.25;;
5827;SDS011;42583;50.240;8.444;2023-03-12T18:43:12;23.90;;;3.78;;
5827;SDS011;42583;50.240;8.444;2023-03-12T18:58:13;18.75;;;2.95;;
5827;SDS011;42583;50.240;8.444;2023-03-12T19:13:14;20.05;;;2.95;;
5827;SDS011;42583;50.240;8.444;2023-03-12T19:28:14;21.92;;;2.92;;
5827;SDS011;42583;50.240;8.444;2023-03-12T19:43:15;21.88;;;2.95;;
5827;SDS011;42583;50.240;8.444;2023-03-12T19:58:16;21.00;;;3.15;;
5827;SDS011;42583;50.240;8.444;2023-03-12T20:13:16;14.63;;;2.70;;
5827;SDS011;42583;50.240;8.444;2023-03-12T20:28:20;22.10;;;3.10;;
5827;SDS011;42583;50.240;8.444;2023-03-12T20:43:20;18.27;;;3.00;;
5827;SDS011;42583;50.240;8.444;2023-03-12T20:58:21;20.77;;;3.35;;
5827;SDS011;42583;50.240;8.444;2023-03-12T21:13:23;16.52;;;3.42;;
5827;SDS011;42583;50.240;8.444;2023-03-12T21:28:23;18.05;;;3.22;;
5827;SDS011;42583;50.240;8.444;2023-03-12T21:43:27;18.35;;;2.50;;
5827;SDS011;42583;50.240;8.444;2023-03-12T21:58:28;19.95;;;2.45;;
5827;SDS011;42583;50.240;8.444;2023-03-12T22:13:29;15.93;;;2.67;;
5827;SDS011;42583;50.240;8.444;2023-03-12T22:28:30;17.25;;;3.28;;
5827;SDS011;42583;50.240;8.444;2023-03-12T22:43:31;18.67;;;3.35;;
5827;SDS011;42583;50.240;8.444;2023-03-12T22:58:32;21.92;;;3.20;;
5827;SDS011;42583;50.240;8.444;2023-03-12T23:13:33;19.50;;;3.10;;
5827;SDS011;42583;50.240;8.444;2023-03-12T23:28:35;22.42;;;2.80;;
5827;SDS011;42583;50.240;8.444;2023-03-12T23:43:36;26.10;;;3.40;;
5827;SDS011;42583;50.240;8.444;2023-03-12T23:58:37;18.02;;;3.20;;
